createdAt,value
2023-01-11T00:01:46.241Z,7.7
2023-01-11T00:11:51.982Z,7.7
2023-01-11T00:21:58.071Z,7.6
2023-01-11T00:32:04.083Z,7.6
2023-01-11T00:42:10.148Z,7.6
2023-01-11T00:52:16.173Z,7.7
2023-01-11T01:02:22.354Z,7.7
2023-01-11T01:12:28.256Z,7.7
2023-01-11T01:22:34.334Z,7.7
2023-01-11T01:32:40.368Z,7.7
2023-01-11T01:42:46.423Z,7.7
2023-01-11T01:52:52.451Z,7.7
2023-01-11T02:02:58.629Z,7.7
2023-01-11T02:13:04.511Z,7.7
2023-01-11T02:23:10.568Z,7.7
2023-01-11T02:33:16.609Z,7.6
2023-01-11T02:43:22.661Z,7.6
2023-01-11T02:53:28.688Z,7.6
2023-01-11T03:03:34.753Z,7.6
2023-01-11T03:13:40.778Z,7.6
2023-01-11T03:23:46.879Z,7.6
2023-01-11T03:33:52.877Z,7.5
2023-01-11T03:43:58.911Z,7.5
2023-01-11T03:54:04.963Z,7.5
2023-01-11T04:04:11.085Z,7.6
2023-01-11T04:14:17.050Z,7.6
2023-01-11T04:24:23.098Z,7.7
2023-01-11T04:34:29.132Z,7.7
2023-01-11T04:44:35.222Z,7.7
2023-01-11T04:54:41.345Z,7.7
2023-01-11T05:04:47.295Z,7.7
2023-01-11T05:14:53.328Z,7.7
2023-01-11T05:24:59.403Z,7.8
2023-01-11T05:35:05.402Z,7.8
2023-01-11T05:45:11.484Z,7.7
2023-01-11T05:55:17.512Z,7.8
2023-01-11T06:05:23.551Z,7.8
2023-01-11T06:15:29.591Z,7.8
2023-01-11T06:25:35.653Z,7.9
2023-01-11T06:35:41.661Z,8
2023-01-11T06:45:47.773Z,8
2023-01-11T06:55:53.760Z,8
2023-01-11T07:05:59.828Z,8
2023-01-11T07:26:13.832Z,8.4
2023-01-11T07:36:19.800Z,8.5
2023-01-11T07:46:26.175Z,8.5
2023-01-11T07:56:31.899Z,8.4
2023-01-11T08:06:37.961Z,8.4
2023-01-11T08:16:43.981Z,8.4
2023-01-11T08:26:50.147Z,8.5
2023-01-11T08:36:56.096Z,8.6
2023-01-11T08:47:02.155Z,8.7
2023-01-11T08:57:08.206Z,8.8
2023-01-11T09:07:14.249Z,8.7
2023-01-11T09:17:20.251Z,8.6
2023-01-11T09:27:26.331Z,8.6
2023-01-11T09:37:32.419Z,8.7
2023-01-11T09:47:38.461Z,8.7
2023-01-11T09:57:44.510Z,8.7
2023-01-11T10:07:50.524Z,8.7
2023-01-11T10:18:39.624Z,8.8
2023-01-11T10:28:02.679Z,9.1
2023-01-11T10:38:08.616Z,8.9
2023-01-11T10:48:14.693Z,8.9
2023-01-11T10:58:20.704Z,8.9
2023-01-11T11:08:26.784Z,9.2
2023-01-11T11:18:32.801Z,9.3
2023-01-11T11:28:38.903Z,9.2
2023-01-11T11:38:44.934Z,9.1
2023-01-11T11:48:50.928Z,9.1
2023-01-11T11:58:56.983Z,9.3
2023-01-11T12:09:03.039Z,9.3
2023-01-11T12:19:09.054Z,9.3
2023-01-11T12:29:15.119Z,9.2
2023-01-11T12:39:21.135Z,9.2
2023-01-11T12:49:27.320Z,9.2
2023-01-11T12:59:33.335Z,9.3
2023-01-11T13:09:39.324Z,9.3
2023-01-11T13:19:45.341Z,9.3
2023-01-11T13:29:51.389Z,9.4
2023-01-11T13:39:57.426Z,9.4
2023-01-11T13:50:03.481Z,9.4
2023-01-11T14:00:09.558Z,9.4
2023-01-11T14:10:15.572Z,9.3
2023-01-11T14:20:21.599Z,9.3
2023-01-11T14:30:27.657Z,9.3
2023-01-11T14:40:33.681Z,9.3
2023-01-11T14:50:39.910Z,9.3
2023-01-11T15:00:45.771Z,9.3
2023-01-11T15:10:51.878Z,9.3
2023-01-11T15:20:57.862Z,9.3
2023-01-11T15:31:03.967Z,9.3
2023-01-11T15:41:09.927Z,9.3
2023-01-11T15:51:16.119Z,9.3
2023-01-11T16:01:22.061Z,9.3
2023-01-11T16:11:29.226Z,9.3
2023-01-11T16:21:35.251Z,9.1
2023-01-11T16:31:41.381Z,9.1
2023-01-11T16:41:47.318Z,9.1
2023-01-11T16:51:53.433Z,9.1
2023-01-11T17:01:59.587Z,9.1
2023-01-11T17:12:05.484Z,9
2023-01-11T17:22:11.508Z,9
2023-01-11T17:32:17.626Z,9
2023-01-11T17:42:23.594Z,9
2023-01-11T17:52:29.671Z,8.9
2023-01-11T18:02:35.751Z,8.9
2023-01-11T18:12:41.827Z,8.9
2023-01-11T18:22:47.802Z,8.9
2023-01-11T18:32:53.860Z,8.9
2023-01-11T18:42:59.867Z,8.8
2023-01-11T18:53:05.944Z,8.8
2023-01-11T19:03:11.954Z,8.8
2023-01-11T19:13:18.032Z,8.8
2023-01-11T19:33:30.120Z,8.7
2023-01-11T19:43:36.135Z,8.7
2023-01-11T19:53:42.260Z,8.7
2023-01-11T20:03:48.235Z,8.7
2023-01-11T20:13:54.281Z,8.7
2023-01-11T20:24:00.314Z,8.6
2023-01-11T20:34:06.382Z,8.6
2023-01-11T20:44:12.408Z,8.6
2023-01-11T20:54:18.512Z,8.6
2023-01-11T21:04:24.479Z,8.6
2023-01-11T21:14:30.577Z,8.5
2023-01-11T21:24:36.590Z,8.5
2023-01-11T21:34:42.661Z,8.5
2023-01-11T21:44:48.672Z,8.5
2023-01-11T21:54:54.747Z,8.5
2023-01-11T22:05:00.759Z,8.5
2023-01-11T22:15:06.828Z,8.5
2023-01-11T22:25:12.876Z,8.5
2023-01-11T22:35:18.925Z,8.5
2023-01-11T22:45:24.987Z,8.5
2023-01-11T22:55:31.021Z,8.5
2023-01-11T23:05:37.049Z,8.5
2023-01-11T23:15:43.193Z,8.4
2023-01-11T23:25:49.127Z,8.4
2023-01-11T23:46:04.978Z,8.4
2023-01-11T23:56:09.127Z,8.4
